createdAt,value
2024-01-15T00:02:07.328Z,1.70
2024-01-15T00:04:39.928Z,1.81
2024-01-15T00:07:07.803Z,1.82
2024-01-15T00:09:35.521Z,1.82
2024-01-15T00:12:03.945Z,1.77
2024-01-15T00:14:31.503Z,1.86
2024-01-15T00:16:59.136Z,1.89
2024-01-15T00:19:28.197Z,1.94
2024-01-15T00:21:58.337Z,1.97
2024-01-15T00:24:25.909Z,1.89
2024-01-15T00:26:54.478Z,1.92
2024-01-15T00:29:22.047Z,1.93
2024-01-15T00:31:49.693Z,1.93
2024-01-15T00:34:17.461Z,1.99
2024-01-15T00:36:45.145Z,1.94
2024-01-15T00:39:14.301Z,1.98
2024-01-15T00:41:41.935Z,1.96
2024-01-15T00:44:09.558Z,1.87
2024-01-15T00:46:44.736Z,1.85
2024-01-15T00:49:12.807Z,1.82
2024-01-15T00:51:40.723Z,1.69
2024-01-15T00:54:08.532Z,1.63
2024-01-15T00:56:37.493Z,1.26
2024-01-15T00:59:05.072Z,1.25
2024-01-15T01:01:33.933Z,1.22
2024-01-15T01:04:01.737Z,1.18
2024-01-15T01:06:31.304Z,1.27
2024-01-15T01:08:59.731Z,1.38
2024-01-15T01:11:27.310Z,1.33
2024-01-15T01:13:57.689Z,1.32
2024-01-15T01:16:25.234Z,1.09
2024-01-15T01:18:53.136Z,1.20
2024-01-15T01:21:21.075Z,1.23
2024-01-15T01:23:48.750Z,1.29
2024-01-15T01:26:17.660Z,1.40
2024-01-15T01:28:45.239Z,1.24
2024-01-15T01:31:14.258Z,1.30
2024-01-15T01:33:42.062Z,1.23
2024-01-15T01:36:10.771Z,1.38
2024-01-15T01:38:38.646Z,1.36
2024-01-15T01:41:06.406Z,1.01
2024-01-15T01:43:34.011Z,0.90
2024-01-15T01:46:04.003Z,1.15
2024-01-15T01:48:34.202Z,0.55
2024-01-15T01:51:05.052Z,0.88
2024-01-15T01:53:35.915Z,1.02
2024-01-15T01:56:05.175Z,0.70
2024-01-15T01:58:33.763Z,0.78
2024-01-15T02:01:01.927Z,0.71
2024-01-15T02:03:30.483Z,0.78
2024-01-15T02:06:01.460Z,0.44
2024-01-15T02:08:29.186Z,0.44
2024-01-15T02:10:56.752Z,0.60
2024-01-15T02:13:24.384Z,0.62
2024-01-15T02:15:52.070Z,0.59
2024-01-15T02:18:19.898Z,0.69
2024-01-15T02:20:47.660Z,0.66
2024-01-15T02:23:17.657Z,0.61
2024-01-15T02:25:47.114Z,0.65
2024-01-15T02:28:16.551Z,0.72
2024-01-15T02:30:45.603Z,0.89
2024-01-15T02:33:14.292Z,0.76
2024-01-15T02:35:42.280Z,0.53
2024-01-15T02:38:10.264Z,0.71
2024-01-15T02:40:40.199Z,0.39
2024-01-15T02:43:07.814Z,0.50
2024-01-15T02:45:35.486Z,0.63
2024-01-15T02:48:03.250Z,0.74
2024-01-15T02:50:30.844Z,0.87
2024-01-15T02:52:58.439Z,0.83
2024-01-15T02:55:25.997Z,0.50
2024-01-15T02:57:54.917Z,0.63
2024-01-15T03:00:22.687Z,0.65
2024-01-15T03:02:52.303Z,0.56
2024-01-15T03:05:20.022Z,0.55
2024-01-15T03:07:47.659Z,0.65
2024-01-15T03:10:15.318Z,0.58
2024-01-15T03:12:43.018Z,0.66
2024-01-15T03:15:12.269Z,0.29
2024-01-15T03:17:39.887Z,0.45
2024-01-15T03:20:08.633Z,0.60
2024-01-15T03:22:36.275Z,0.63
2024-01-15T03:25:04.177Z,0.68
2024-01-15T03:27:31.772Z,0.68
2024-01-15T03:29:59.356Z,0.56
2024-01-15T03:32:28.291Z,0.34
2024-01-15T03:34:55.890Z,0.54
2024-01-15T03:37:23.455Z,0.39
2024-01-15T03:39:51.179Z,0.46
2024-01-15T03:42:18.979Z,0.59
2024-01-15T03:44:46.604Z,0.57
2024-01-15T03:47:14.190Z,0.65
2024-01-15T03:49:43.216Z,0.67
2024-01-15T03:52:10.947Z,0.74
2024-01-15T03:54:38.880Z,0.68
2024-01-15T03:57:06.787Z,0.59
2024-01-15T03:59:34.741Z,0.72
2024-01-15T04:02:02.327Z,0.71
2024-01-15T04:04:30.111Z,0.80
2024-01-15T04:06:59.186Z,0.81
2024-01-15T04:09:26.917Z,0.70
2024-01-15T04:11:54.487Z,0.73
2024-01-15T04:14:22.060Z,0.71
2024-01-15T04:16:49.615Z,3.05
2024-01-15T04:19:17.280Z,5.88
2024-01-15T04:21:45.110Z,6.34
2024-01-15T04:24:14.183Z,4.36
2024-01-15T04:26:41.823Z,3.15
2024-01-15T04:29:09.434Z,2.52
2024-01-15T04:31:37.193Z,2.05
2024-01-15T04:34:04.967Z,1.39
2024-01-15T04:36:32.644Z,1.20
2024-01-15T04:39:00.307Z,2.08
2024-01-15T04:41:29.235Z,4.64
2024-01-15T04:43:56.868Z,3.12
2024-01-15T04:46:24.649Z,2.39
2024-01-15T04:48:52.318Z,1.99
2024-01-15T04:51:20.055Z,1.75
2024-01-15T04:53:47.624Z,1.46
2024-01-15T04:56:15.181Z,1.35
2024-01-15T04:58:44.054Z,1.16
2024-01-15T05:01:12.183Z,0.93
2024-01-15T05:03:40.302Z,0.99
2024-01-15T05:06:08.508Z,0.83
2024-01-15T05:08:36.129Z,0.88
2024-01-15T05:11:03.775Z,0.79
2024-01-15T05:13:31.327Z,0.71
2024-01-15T05:16:00.414Z,0.71
2024-01-15T05:18:28.341Z,0.45
2024-01-15T05:20:56.015Z,0.40
2024-01-15T05:23:23.639Z,0.28
2024-01-15T05:25:51.526Z,0.22
2024-01-15T05:28:19.252Z,0.43
2024-01-15T05:30:47.000Z,0.54
2024-01-15T05:33:16.174Z,0.65
2024-01-15T05:35:43.956Z,0.51
2024-01-15T05:38:11.493Z,0.57
2024-01-15T05:40:39.133Z,0.36
2024-01-15T05:43:06.690Z,0.23
2024-01-15T05:45:36.568Z,0.43
2024-01-15T05:48:05.040Z,0.38
2024-01-15T05:50:34.057Z,0.28
2024-01-15T05:53:01.660Z,0.54
2024-01-15T05:55:29.199Z,0.68
2024-01-15T05:57:56.855Z,0.75
2024-01-15T06:00:24.559Z,0.73
2024-01-15T06:02:52.376Z,0.74
2024-01-15T06:05:20.050Z,0.87
2024-01-15T06:07:48.944Z,0.97
2024-01-15T06:10:16.674Z,0.99
2024-01-15T06:12:45.626Z,0.92
2024-01-15T06:15:14.059Z,0.88
2024-01-15T06:17:41.742Z,0.89
2024-01-15T06:20:10.837Z,0.53
2024-01-15T06:22:40.168Z,0.69
2024-01-15T06:25:10.226Z,0.60
2024-01-15T06:27:37.822Z,0.66
2024-01-15T06:30:07.284Z,0.59
2024-01-15T06:32:34.945Z,0.76
2024-01-15T06:35:02.583Z,0.46
2024-01-15T06:37:30.195Z,0.53
2024-01-15T06:39:58.057Z,0.69
2024-01-15T06:42:27.114Z,0.73
2024-01-15T06:44:54.772Z,0.50
2024-01-15T06:47:22.411Z,0.49
2024-01-15T06:49:51.628Z,0.57
2024-01-15T06:52:19.404Z,0.73
2024-01-15T06:54:47.045Z,0.62
2024-01-15T06:57:14.746Z,0.60
2024-01-15T06:59:43.653Z,0.76
2024-01-15T07:02:11.203Z,0.78
2024-01-15T07:04:41.340Z,0.52
2024-01-15T07:07:10.460Z,0.67
2024-01-15T07:09:38.050Z,0.76
2024-01-15T07:12:06.117Z,0.78
2024-01-15T07:14:33.718Z,0.57
2024-01-15T07:17:02.656Z,0.61
2024-01-15T07:19:30.370Z,0.66
2024-01-15T07:21:58.174Z,0.73
2024-01-15T07:24:25.873Z,0.18
2024-01-15T07:26:53.432Z,0.40
2024-01-15T07:29:21.048Z,0.62
2024-01-15T07:31:50.919Z,0.78
2024-01-15T07:34:20.224Z,0.71
2024-01-15T07:36:47.961Z,0.53
2024-01-15T07:39:16.007Z,0.65
2024-01-15T07:41:43.678Z,0.63
2024-01-15T07:44:11.211Z,0.60
2024-01-15T07:46:38.814Z,0.65
2024-01-15T07:49:06.844Z,0.60
2024-01-15T07:51:35.923Z,0.83
2024-01-15T07:54:03.527Z,0.84
2024-01-15T07:56:31.283Z,0.97
2024-01-15T07:58:58.910Z,0.97
2024-01-15T08:01:26.575Z,0.96
2024-01-15T08:03:55.784Z,0.91
2024-01-15T08:06:23.684Z,0.91
2024-01-15T08:08:52.802Z,0.96
2024-01-15T08:11:20.361Z,0.97
2024-01-15T08:13:47.921Z,1.01
2024-01-15T08:16:15.579Z,0.90
2024-01-15T08:18:44.092Z,0.97
2024-01-15T08:21:11.709Z,0.79
2024-01-15T08:23:39.546Z,0.77
2024-01-15T08:26:08.469Z,0.92
2024-01-15T08:28:37.216Z,0.93
2024-01-15T08:31:06.689Z,0.89
2024-01-15T08:33:34.469Z,0.78
2024-01-15T08:36:02.130Z,0.88
2024-01-15T08:38:29.665Z,0.52
2024-01-15T08:40:59.894Z,0.67
2024-01-15T08:43:28.820Z,0.88
2024-01-15T08:45:56.476Z,0.86
2024-01-15T08:48:24.264Z,0.89
2024-01-15T08:50:53.035Z,0.75
2024-01-15T08:53:20.909Z,0.39
2024-01-15T08:55:48.707Z,0.64
2024-01-15T08:58:16.871Z,0.83
2024-01-15T09:00:46.153Z,0.69
2024-01-15T09:03:13.973Z,0.68
2024-01-15T09:05:41.928Z,0.62
2024-01-15T09:08:09.627Z,0.83
2024-01-15T09:10:37.397Z,0.87
2024-01-15T09:13:05.772Z,0.60
2024-01-15T09:15:33.553Z,0.86
2024-01-15T09:18:06.192Z,0.83
2024-01-15T09:20:35.633Z,0.92
2024-01-15T09:23:03.675Z,1.12
2024-01-15T09:25:31.317Z,1.09
2024-01-15T09:27:59.179Z,0.94
2024-01-15T09:30:26.882Z,0.88
2024-01-15T09:32:54.720Z,1.14
2024-01-15T09:35:25.152Z,1.29
2024-01-15T09:37:53.144Z,1.25
2024-01-15T09:40:22.597Z,1.24
2024-01-15T09:42:50.909Z,1.30
2024-01-15T09:45:18.758Z,1.31
2024-01-15T09:47:47.181Z,1.49
2024-01-15T09:50:15.823Z,1.47
2024-01-15T09:52:45.682Z,1.43
2024-01-15T09:55:14.934Z,1.48
2024-01-15T09:57:43.084Z,1.40
2024-01-15T10:00:12.897Z,1.45
2024-01-15T10:02:41.118Z,1.56
2024-01-15T10:05:09.374Z,1.66
2024-01-15T10:07:39.287Z,1.64
2024-01-15T10:10:09.651Z,1.69
2024-01-15T10:12:38.452Z,1.67
2024-01-15T10:15:06.927Z,1.74
2024-01-15T10:17:34.684Z,1.80
2024-01-15T10:20:02.791Z,1.88
2024-01-15T10:22:30.541Z,1.78
2024-01-15T10:24:58.619Z,1.85
2024-01-15T10:27:27.665Z,1.84
2024-01-15T10:29:55.264Z,1.91
2024-01-15T10:32:24.997Z,1.93
2024-01-15T10:34:54.943Z,1.96
2024-01-15T10:37:24.491Z,2.05
2024-01-15T10:39:54.367Z,2.11
2024-01-15T10:42:23.125Z,2.18
2024-01-15T10:44:52.184Z,2.26
2024-01-15T10:47:20.591Z,2.34
2024-01-15T10:49:48.415Z,2.32
2024-01-15T10:52:16.863Z,2.35
2024-01-15T10:54:45.797Z,2.39
2024-01-15T10:57:14.403Z,2.53
2024-01-15T10:59:42.001Z,2.59
2024-01-15T11:02:11.422Z,2.59
2024-01-15T11:04:39.375Z,2.58
2024-01-15T11:07:07.558Z,2.64
2024-01-15T11:09:35.229Z,2.67
2024-01-15T11:12:11.388Z,2.66
2024-01-15T11:14:44.679Z,2.59
2024-01-15T11:17:14.246Z,2.67
2024-01-15T11:19:45.793Z,2.75
2024-01-15T11:22:58.921Z,2.83
2024-01-15T11:25:36.048Z,2.90
2024-01-15T11:28:03.953Z,2.89
2024-01-15T11:30:32.010Z,2.93
2024-01-15T11:33:01.074Z,3.02
2024-01-15T11:35:50.466Z,3.02
2024-01-15T11:38:29.459Z,3.07
2024-01-15T11:40:57.453Z,3.15
2024-01-15T11:43:25.264Z,3.17
2024-01-15T11:45:54.587Z,3.07
2024-01-15T11:48:25.190Z,3.05
2024-01-15T11:50:53.340Z,3.12
2024-01-15T11:53:35.082Z,3.24
2024-01-15T11:56:05.082Z,3.29
2024-01-15T11:58:33.105Z,3.28
2024-01-15T12:01:01.081Z,3.37
2024-01-15T12:03:30.078Z,3.35
2024-01-15T12:05:59.050Z,3.37
2024-01-15T12:08:28.146Z,3.37
2024-01-15T12:10:55.803Z,3.44
2024-01-15T12:13:23.532Z,3.44
2024-01-15T12:15:51.590Z,3.45
2024-01-15T12:18:20.842Z,3.47
2024-01-15T12:20:50.865Z,3.42
2024-01-15T12:23:19.603Z,3.44
2024-01-15T12:25:48.164Z,3.36
2024-01-15T12:28:16.883Z,3.40
2024-01-15T12:30:45.715Z,3.42
2024-01-15T12:33:13.505Z,3.34
2024-01-15T12:35:41.074Z,3.41
2024-01-15T12:38:09.975Z,3.34
2024-01-15T12:40:38.241Z,3.45
2024-01-15T12:43:07.866Z,3.46
2024-01-15T12:45:36.540Z,3.41
2024-01-15T12:48:04.940Z,3.41
2024-01-15T12:50:35.125Z,3.47
2024-01-15T12:53:03.182Z,3.37
2024-01-15T12:55:32.188Z,3.47
2024-01-15T12:57:59.790Z,3.51
2024-01-15T13:00:27.863Z,3.51
2024-01-15T13:02:55.904Z,3.50
2024-01-15T13:05:25.278Z,3.45
2024-01-15T13:07:53.193Z,3.39
2024-01-15T13:10:21.635Z,3.39
2024-01-15T13:12:51.776Z,3.37
2024-01-15T13:15:19.529Z,3.36
2024-01-15T13:17:47.396Z,3.41
2024-01-15T13:20:15.087Z,3.48
2024-01-15T13:22:45.364Z,3.56
2024-01-15T13:25:13.445Z,3.23
2024-01-15T13:27:42.004Z,3.42
2024-01-15T13:30:13.548Z,3.30
2024-01-15T13:32:41.551Z,3.22
2024-01-15T13:35:13.988Z,3.35
2024-01-15T13:37:42.399Z,3.18
2024-01-15T13:40:17.157Z,3.27
2024-01-15T13:42:45.080Z,3.01
2024-01-15T13:45:15.521Z,2.80
2024-01-15T13:47:44.290Z,2.88
2024-01-15T13:50:12.189Z,2.60
2024-01-15T13:52:39.885Z,2.44
2024-01-15T13:55:09.906Z,2.50
2024-01-15T13:57:37.830Z,2.53
2024-01-15T14:00:10.854Z,2.65
2024-01-15T14:02:39.847Z,2.80
2024-01-15T14:05:08.582Z,2.85
2024-01-15T14:07:36.285Z,2.67
2024-01-15T14:10:04.975Z,2.78
2024-01-15T14:12:32.604Z,2.84
2024-01-15T14:15:00.181Z,2.89
2024-01-15T14:17:27.786Z,2.99
2024-01-15T14:19:57.458Z,2.94
2024-01-15T14:22:25.786Z,2.85
2024-01-15T14:24:53.983Z,2.56
2024-01-15T14:27:22.652Z,2.63
2024-01-15T14:29:50.227Z,2.68
2024-01-15T14:32:17.774Z,2.63
2024-01-15T14:34:45.621Z,2.35
2024-01-15T14:37:14.579Z,2.41
2024-01-15T14:39:42.173Z,2.38
2024-01-15T14:42:09.954Z,2.34
2024-01-15T14:44:39.182Z,2.40
2024-01-15T14:47:06.951Z,2.48
2024-01-15T14:49:34.820Z,2.30
2024-01-15T14:52:02.526Z,2.38
2024-01-15T14:54:31.505Z,2.26
2024-01-15T14:56:59.068Z,2.10
2024-01-15T14:59:26.752Z,2.10
2024-01-15T15:01:55.020Z,2.16
2024-01-15T15:04:22.689Z,2.13
2024-01-15T15:06:51.072Z,2.12
2024-01-15T15:09:18.675Z,2.15
2024-01-15T15:11:47.633Z,1.90
2024-01-15T15:14:15.296Z,1.88
2024-01-15T15:16:43.022Z,1.96
2024-01-15T15:19:10.736Z,1.94
2024-01-15T15:21:38.939Z,1.91
2024-01-15T15:24:06.947Z,1.83
2024-01-15T15:26:34.528Z,1.89
2024-01-15T15:29:03.537Z,1.60
2024-01-15T15:31:31.191Z,1.69
2024-01-15T15:33:59.095Z,1.62
2024-01-15T15:36:26.905Z,1.67
2024-01-15T15:38:58.409Z,1.70
2024-01-15T15:41:28.849Z,1.71
2024-01-15T15:43:56.431Z,1.77
2024-01-15T15:46:25.379Z,1.83
2024-01-15T15:48:53.699Z,1.87
2024-01-15T15:51:21.360Z,1.94
2024-01-15T15:53:49.324Z,1.86
2024-01-15T15:56:18.174Z,1.76
2024-01-15T15:58:45.733Z,1.41
2024-01-15T16:01:13.384Z,1.52
2024-01-15T16:03:42.456Z,1.40
2024-01-15T16:06:10.164Z,1.56
2024-01-15T16:08:37.895Z,1.53
2024-01-15T16:11:05.551Z,2.15
2024-01-15T16:13:33.352Z,3.36
2024-01-15T16:23:09.218Z,2.79
2024-01-15T16:23:22.417Z,2.42
2024-01-15T16:23:37.368Z,2.28
2024-01-15T16:24:33.979Z,1.70
2024-01-15T16:29:41.573Z,1.31
2024-01-15T16:32:09.192Z,1.46
2024-01-15T16:34:38.184Z,1.37
2024-01-15T16:37:07.463Z,1.41
2024-01-15T16:39:35.149Z,1.30
2024-01-15T16:42:02.742Z,2.53
2024-01-15T16:44:31.658Z,4.25
2024-01-15T16:47:03.709Z,3.28
2024-01-15T16:49:33.629Z,2.42
2024-01-15T16:52:02.797Z,2.20
2024-01-15T16:54:30.989Z,1.69
2024-01-15T16:56:58.558Z,1.63
2024-01-15T16:59:26.276Z,3.09
2024-01-15T17:01:53.908Z,5.69
2024-01-15T17:04:21.502Z,4.74
2024-01-15T17:06:49.073Z,3.68
2024-01-15T17:09:17.982Z,3.09
2024-01-15T17:11:45.648Z,2.29
2024-01-15T17:14:13.304Z,2.15
2024-01-15T17:16:40.904Z,2.01
2024-01-15T17:19:09.352Z,2.02
2024-01-15T17:21:36.914Z,2.02
2024-01-15T17:24:05.134Z,3.04
2024-01-15T17:26:34.186Z,5.42
2024-01-15T17:29:01.781Z,5.55
2024-01-15T17:31:30.801Z,3.90
2024-01-15T17:34:00.145Z,2.71
2024-01-15T17:36:27.898Z,2.29
2024-01-15T17:38:55.513Z,2.02
2024-01-15T17:41:23.287Z,1.87
2024-01-15T17:43:52.308Z,1.51
2024-01-15T17:46:20.238Z,1.47
2024-01-15T17:48:48.487Z,1.25
2024-01-15T17:51:18.561Z,1.16
2024-01-15T17:53:46.242Z,1.08
2024-01-15T17:56:13.959Z,0.97
2024-01-15T17:58:41.929Z,0.85
2024-01-15T18:01:12.008Z,0.79
2024-01-15T18:03:40.327Z,0.85
2024-01-15T18:06:08.742Z,0.98
2024-01-15T18:08:36.447Z,0.90
2024-01-15T18:11:05.656Z,0.90
2024-01-15T18:13:33.521Z,1.05
2024-01-15T18:16:01.183Z,1.15
2024-01-15T18:18:30.447Z,1.28
2024-01-15T18:20:58.065Z,1.38
2024-01-15T18:23:25.716Z,2.70
2024-01-15T18:25:53.283Z,5.95
2024-01-15T18:28:21.005Z,7.25
2024-01-15T18:30:48.705Z,5.95
2024-01-15T18:33:16.352Z,4.23
2024-01-15T18:35:45.542Z,3.29
2024-01-15T18:38:13.202Z,2.29
2024-01-15T18:40:40.892Z,2.14
2024-01-15T18:43:08.447Z,2.09
2024-01-15T18:45:37.801Z,1.89
2024-01-15T18:48:06.068Z,1.76
2024-01-15T18:50:33.841Z,1.48
2024-01-15T18:53:02.884Z,1.29
2024-01-15T18:55:30.514Z,1.41
2024-01-15T18:58:00.473Z,1.40
2024-01-15T19:00:28.422Z,1.49
2024-01-15T19:02:59.146Z,1.39
2024-01-15T19:05:27.269Z,1.14
2024-01-15T19:07:55.092Z,1.23
2024-01-15T19:10:24.227Z,1.78
2024-01-15T19:12:51.825Z,4.65
2024-01-15T19:15:21.299Z,5.06
2024-01-15T19:17:49.900Z,3.19
2024-01-15T19:20:18.227Z,2.60
2024-01-15T19:22:45.871Z,1.66
2024-01-15T19:25:13.621Z,1.40
2024-01-15T19:27:45.487Z,1.13
2024-01-15T19:30:15.084Z,1.01
2024-01-15T19:32:43.169Z,0.93
2024-01-15T19:35:11.874Z,1.01
2024-01-15T19:37:39.830Z,1.49
2024-01-15T19:40:08.692Z,1.72
2024-01-15T19:42:36.320Z,1.89
2024-01-15T19:45:06.091Z,0.98
2024-01-15T19:47:34.030Z,0.79
2024-01-15T19:50:01.701Z,0.49
2024-01-15T19:52:29.286Z,0.35
2024-01-15T19:54:58.532Z,0.34
2024-01-15T19:57:26.247Z,0.06
2024-01-15T19:59:55.496Z,0.06
2024-01-15T20:02:24.484Z,-0.04
2024-01-15T20:04:52.068Z,0.52
2024-01-15T20:07:19.656Z,1.80
2024-01-15T20:09:47.643Z,1.62
2024-01-15T20:12:15.260Z,1.32
2024-01-15T20:14:42.855Z,0.83
2024-01-15T20:17:10.483Z,0.64
2024-01-15T20:19:39.480Z,0.54
2024-01-15T20:22:07.233Z,0.37
2024-01-15T20:24:34.787Z,0.44
2024-01-15T20:27:02.322Z,0.36
2024-01-15T20:29:29.891Z,0.07
2024-01-15T20:31:57.684Z,0.02
2024-01-15T20:34:25.520Z,0.02
2024-01-15T20:36:54.466Z,0.09
2024-01-15T20:39:22.242Z,-0.10
2024-01-15T20:41:50.306Z,-0.14
2024-01-15T20:44:19.614Z,1.92
2024-01-15T20:46:47.461Z,1.59
2024-01-15T20:49:15.442Z,0.92
2024-01-15T20:51:43.016Z,0.59
2024-01-15T20:54:11.993Z,0.71
2024-01-15T20:56:39.578Z,0.79
2024-01-15T20:59:07.250Z,5.05
2024-01-15T21:01:34.817Z,4.18
2024-01-15T21:04:02.488Z,2.81
2024-01-15T21:06:30.179Z,2.16
2024-01-15T21:08:57.849Z,1.71
2024-01-15T21:11:27.715Z,1.41
2024-01-15T21:13:55.400Z,1.24
2024-01-15T21:16:22.974Z,1.01
2024-01-15T21:18:51.575Z,0.93
2024-01-15T21:21:19.739Z,0.76
2024-01-15T21:23:47.400Z,0.70
2024-01-15T21:26:15.304Z,0.65
2024-01-15T21:28:44.374Z,0.59
2024-01-15T21:31:12.010Z,0.58
2024-01-15T21:33:42.865Z,0.57
2024-01-15T21:36:10.485Z,0.52
2024-01-15T21:38:38.144Z,0.50
2024-01-15T21:41:06.281Z,0.42
2024-01-15T21:43:33.872Z,0.45
2024-01-15T21:46:02.840Z,0.47
2024-01-15T21:48:30.603Z,0.52
2024-01-15T21:50:58.232Z,0.50
2024-01-15T21:53:25.827Z,0.42
2024-01-15T21:55:53.435Z,0.43
2024-01-15T21:58:21.164Z,0.46
2024-01-15T22:00:48.935Z,0.45
2024-01-15T22:03:18.541Z,0.47
2024-01-15T22:05:46.162Z,0.45
2024-01-15T22:08:13.817Z,0.36
2024-01-15T22:10:41.784Z,0.42
2024-01-15T22:13:09.673Z,0.30
2024-01-15T22:15:38.041Z,0.27
2024-01-15T22:18:06.036Z,0.29
2024-01-15T22:20:35.132Z,0.28
2024-01-15T22:23:02.717Z,0.25
2024-01-15T22:25:32.952Z,0.24
2024-01-15T22:28:00.668Z,0.05
2024-01-15T22:30:28.327Z,-0.10
2024-01-15T22:32:56.093Z,-0.19
2024-01-15T22:35:23.813Z,-0.25
2024-01-15T22:37:53.198Z,-0.28
2024-01-15T22:40:20.985Z,-1.06
2024-01-15T22:42:48.574Z,-1.49
2024-01-15T22:45:17.540Z,-1.59
2024-01-15T22:47:45.700Z,-1.28
2024-01-15T22:50:14.256Z,-0.98
2024-01-15T22:52:42.052Z,-0.78
2024-01-15T22:55:11.619Z,-0.75
2024-01-15T22:57:39.161Z,-0.70
2024-01-15T23:00:13.471Z,-0.64
2024-01-15T23:02:41.080Z,-0.71
2024-01-15T23:05:09.626Z,-0.68
2024-01-15T23:07:37.652Z,-0.74
2024-01-15T23:10:08.039Z,-0.63
2024-01-15T23:12:37.570Z,-0.66
2024-01-15T23:15:06.080Z,-0.65
2024-01-15T23:17:33.752Z,-0.64
2024-01-15T23:20:01.425Z,-0.60
2024-01-15T23:22:29.007Z,-0.69
2024-01-15T23:24:55.575Z,-0.77
2024-01-15T23:27:23.152Z,-0.79
2024-01-15T23:29:52.054Z,-0.88
2024-01-15T23:32:19.876Z,-0.94
2024-01-15T23:34:47.439Z,-1.14
2024-01-15T23:37:15.865Z,-1.02
2024-01-15T23:39:43.407Z,-0.99
2024-01-15T23:42:14.805Z,-0.86
2024-01-15T23:44:42.973Z,-0.99
2024-01-15T23:47:12.106Z,-1.10
2024-01-15T23:49:40.360Z,-1.06
2024-01-15T23:52:08.540Z,-1.06
2024-01-15T23:54:37.564Z,-1.12
2024-01-15T23:57:05.452Z,-1.20
2024-01-15T23:59:35.161Z,-1.28
